sensor_id;sensor_type;location;lat;lon;timestamp;pressure;altitude;pressure_sealevel;temperature;humidity
11017;BME280;54687;50.800;6.772;2023-04-19T00:01:05;61004.88;;;-144.06;49.77
11017;BME280;54687;50.800;6.772;2023-04-19T00:03:33;61004.88;;;-144.06;49.81
11017;BME280;54687;50.800;6.772;2023-04-19T00:06:00;61021.63;;;-144.06;49.86
11017;BME280;54687;50.800;6.772;2023-04-19T00:08:27;60962.94;;;-144.06;50.12
11017;BME280;54687;50.800;6.772;2023-04-19T00:10:53;60986.00;;;-144.06;50.12
11017;BME280;54687;50.800;6.772;2023-04-19T00:13:20;61013.25;;;-144.06;50.16
11017;BME280;54687;50.800;6.772;2023-04-19T00:15:47;60990.19;;;-144.06;50.12
11017;BME280;54687;50.800;6.772;2023-04-19T00:18:13;60975.53;;;-144.06;50.28
11017;BME280;54687;50.800;6.772;2023-04-19T00:20:41;60965.03;;;-144.06;50.38
11017;BME280;54687;50.800;6.772;2023-04-19T00:23:08;61013.25;;;-144.06;50.57
11017;BME280;54687;50.800;6.772;2023-04-19T00:25:35;60988.09;;;-144.06;50.51
11017;BME280;54687;50.800;6.772;2023-04-19T00:28:01;61004.88;;;-144.06;50.58
11017;BME280;54687;50.800;6.772;2023-04-19T00:30:28;61023.75;;;-144.06;50.46
11017;BME280;54687;50.800;6.772;2023-04-19T00:32:54;60983.91;;;-144.06;50.52
11017;BME280;54687;50.800;6.772;2023-04-19T00:35:21;60979.72;;;-144.06;50.54
11017;BME280;54687;50.800;6.772;2023-04-19T00:37:49;60994.38;;;-144.06;50.61
11017;BME280;54687;50.800;6.772;2023-04-19T00:40:15;60990.19;;;-144.06;50.84
11017;BME280;54687;50.800;6.772;2023-04-19T00:42:42;61017.44;;;-144.06;51.07
11017;BME280;54687;50.800;6.772;2023-04-19T00:45:09;60988.09;;;-144.06;51.03
11017;BME280;54687;50.800;6.772;2023-04-19T00:47:37;60996.50;;;-144.06;51.26
11017;BME280;54687;50.800;6.772;2023-04-19T00:50:04;60998.59;;;-144.06;51.11
11017;BME280;54687;50.800;6.772;2023-04-19T00:52:32;60996.50;;;-144.06;51.28
11017;BME280;54687;50.800;6.772;2023-04-19T00:55:00;60979.72;;;-144.06;51.32
11017;BME280;54687;50.800;6.772;2023-04-19T00:57:28;61006.97;;;-144.06;51.57
11017;BME280;54687;50.800;6.772;2023-04-19T00:59:55;61019.53;;;-144.06;51.50
11017;BME280;54687;50.800;6.772;2023-04-19T01:02:22;60954.56;;;-144.06;51.50
11017;BME280;54687;50.800;6.772;2023-04-19T01:04:48;60996.50;;;-144.06;51.75
11017;BME280;54687;50.800;6.772;2023-04-19T01:07:15;61013.25;;;-144.06;52.00
11017;BME280;54687;50.800;6.772;2023-04-19T01:09:43;61019.53;;;-144.06;52.10
11017;BME280;54687;50.800;6.772;2023-04-19T01:12:12;60981.81;;;-144.06;52.08
11017;BME280;54687;50.800;6.772;2023-04-19T01:14:38;60979.72;;;-144.06;52.48
11017;BME280;54687;50.800;6.772;2023-04-19T01:17:06;61013.25;;;-144.06;52.57
11017;BME280;54687;50.800;6.772;2023-04-19T01:19:32;61036.31;;;-144.06;52.68
11017;BME280;54687;50.800;6.772;2023-04-19T01:22:00;60996.50;;;-144.06;52.67
11017;BME280;54687;50.800;6.772;2023-04-19T01:24:30;61042.59;;;-144.06;52.88
11017;BME280;54687;50.800;6.772;2023-04-19T01:26:56;60994.38;;;-144.06;53.26
11017;BME280;54687;50.800;6.772;2023-04-19T01:29:23;60988.09;;;-144.06;53.29
11017;BME280;54687;50.800;6.772;2023-04-19T01:31:50;60983.91;;;-144.06;53.54
11017;BME280;54687;50.800;6.772;2023-04-19T01:34:18;61017.44;;;-144.06;53.41
11017;BME280;54687;50.800;6.772;2023-04-19T01:36:44;60994.38;;;-144.06;53.91
11017;BME280;54687;50.800;6.772;2023-04-19T01:39:11;61025.84;;;-144.06;53.81
11017;BME280;54687;50.800;6.772;2023-04-19T01:41:39;60988.09;;;-144.06;54.10
11017;BME280;54687;50.800;6.772;2023-04-19T01:44:05;61013.25;;;-144.06;54.33
11017;BME280;54687;50.800;6.772;2023-04-19T01:46:32;60983.91;;;-144.06;54.64
11017;BME280;54687;50.800;6.772;2023-04-19T01:48:59;61000.69;;;-144.06;54.81
11017;BME280;54687;50.800;6.772;2023-04-19T01:51:25;61017.44;;;-144.06;54.86
11017;BME280;54687;50.800;6.772;2023-04-19T01:53:52;60988.09;;;-144.06;54.79
11017;BME280;54687;50.800;6.772;2023-04-19T01:56:19;61004.88;;;-144.06;54.77
11017;BME280;54687;50.800;6.772;2023-04-19T01:58:47;61038.41;;;-144.06;55.16
11017;BME280;54687;50.800;6.772;2023-04-19T02:01:14;61019.53;;;-144.06;55.39
11017;BME280;54687;50.800;6.772;2023-04-19T02:03:41;61034.22;;;-144.06;55.45
11017;BME280;54687;50.800;6.772;2023-04-19T02:06:09;61025.84;;;-144.06;55.35
11017;BME280;54687;50.800;6.772;2023-04-19T02:08:36;60996.50;;;-144.06;55.66
11017;BME280;54687;50.800;6.772;2023-04-19T02:11:05;61051.00;;;-144.06;55.87
11017;BME280;54687;50.800;6.772;2023-04-19T02:13:32;60992.28;;;-144.06;55.92
11017;BME280;54687;50.800;6.772;2023-04-19T02:16:00;60994.38;;;-144.06;56.16
11017;BME280;54687;50.800;6.772;2023-04-19T02:18:27;61004.88;;;-144.06;56.23
11017;BME280;54687;50.800;6.772;2023-04-19T02:20:54;61046.78;;;-144.06;56.26
11017;BME280;54687;50.800;6.772;2023-04-19T02:23:20;61063.56;;;-144.06;56.53
11017;BME280;54687;50.800;6.772;2023-04-19T02:25:47;61002.78;;;-144.06;56.65
11017;BME280;54687;50.800;6.772;2023-04-19T02:28:13;61042.59;;;-144.06;56.64
11017;BME280;54687;50.800;6.772;2023-04-19T02:30:40;61025.84;;;-144.06;56.71
11017;BME280;54687;50.800;6.772;2023-04-19T02:33:08;61032.13;;;-144.06;56.74
11017;BME280;54687;50.800;6.772;2023-04-19T02:35:35;61046.78;;;-144.06;56.78
11017;BME280;54687;50.800;6.772;2023-04-19T02:38:03;61030.03;;;-144.06;56.90
11017;BME280;54687;50.800;6.772;2023-04-19T02:40:30;61034.22;;;-144.06;56.80
11017;BME280;54687;50.800;6.772;2023-04-19T02:42:56;61038.41;;;-144.06;57.09
11017;BME280;54687;50.800;6.772;2023-04-19T02:45:23;61025.84;;;-144.06;57.30
11017;BME280;54687;50.800;6.772;2023-04-19T02:47:50;61027.94;;;-144.06;57.14
11017;BME280;54687;50.800;6.772;2023-04-19T02:50:18;61013.25;;;-144.06;57.50
11017;BME280;54687;50.800;6.772;2023-04-19T02:52:44;61017.44;;;-144.06;57.34
11017;BME280;54687;50.800;6.772;2023-04-19T02:55:11;61046.78;;;-144.06;57.20
11017;BME280;54687;50.800;6.772;2023-04-19T02:57:37;61055.19;;;-144.06;57.46
11017;BME280;54687;50.800;6.772;2023-04-19T03:00:05;61023.75;;;-144.06;57.14
11017;BME280;54687;50.800;6.772;2023-04-19T03:02:34;61013.25;;;-144.06;57.20
11017;BME280;54687;50.800;6.772;2023-04-19T03:05:01;61055.19;;;-144.06;56.95
11017;BME280;54687;50.800;6.772;2023-04-19T03:07:29;61009.06;;;-144.06;57.12
11017;BME280;54687;50.800;6.772;2023-04-19T03:09:56;61004.88;;;-144.06;57.10
11017;BME280;54687;50.800;6.772;2023-04-19T03:12:22;60998.59;;;-144.06;56.90
11017;BME280;54687;50.800;6.772;2023-04-19T03:14:49;61009.06;;;-144.06;56.66
11017;BME280;54687;50.800;6.772;2023-04-19T03:17:15;61021.63;;;-144.06;57.09
11017;BME280;54687;50.800;6.772;2023-04-19T03:19:43;61063.56;;;-144.06;57.12
11017;BME280;54687;50.800;6.772;2023-04-19T03:22:09;60975.53;;;-144.06;56.79
11017;BME280;54687;50.800;6.772;2023-04-19T03:24:37;61004.88;;;-144.06;57.10
11017;BME280;54687;50.800;6.772;2023-04-19T03:27:04;61017.44;;;-144.06;56.95
11017;BME280;54687;50.800;6.772;2023-04-19T03:29:30;61051.00;;;-144.06;57.02
11017;BME280;54687;50.800;6.772;2023-04-19T03:31:57;61030.03;;;-144.06;57.28
11017;BME280;54687;50.800;6.772;2023-04-19T03:34:23;61027.94;;;-144.06;57.56
11017;BME280;54687;50.800;6.772;2023-04-19T03:36:50;61009.06;;;-144.06;57.60
11017;BME280;54687;50.800;6.772;2023-04-19T03:39:17;61025.84;;;-144.06;57.90
11017;BME280;54687;50.800;6.772;2023-04-19T03:41:45;61023.75;;;-144.06;58.00
11017;BME280;54687;50.800;6.772;2023-04-19T03:44:11;61046.78;;;-144.06;57.93
11017;BME280;54687;50.800;6.772;2023-04-19T03:46:38;61034.22;;;-144.06;58.34
11017;BME280;54687;50.800;6.772;2023-04-19T03:49:04;61002.78;;;-144.06;58.20
11017;BME280;54687;50.800;6.772;2023-04-19T03:51:31;60996.50;;;-144.06;58.60
11017;BME280;54687;50.800;6.772;2023-04-19T03:53:57;61025.84;;;-144.06;58.64
11017;BME280;54687;50.800;6.772;2023-04-19T03:56:24;61051.00;;;-144.06;58.60
11017;BME280;54687;50.800;6.772;2023-04-19T03:58:52;61044.69;;;-144.06;58.28
11017;BME280;54687;50.800;6.772;2023-04-19T04:01:19;61034.22;;;-144.06;58.44
11017;BME280;54687;50.800;6.772;2023-04-19T04:03:46;61038.41;;;-144.06;58.36
11017;BME280;54687;50.800;6.772;2023-04-19T04:06:12;61025.84;;;-144.06;58.40
11017;BME280;54687;50.800;6.772;2023-04-19T04:08:39;61113.88;;;-144.06;58.56
11017;BME280;54687;50.800;6.772;2023-04-19T04:11:05;61013.25;;;-144.06;58.60
11017;BME280;54687;50.800;6.772;2023-04-19T04:13:32;61063.56;;;-144.06;58.62
11017;BME280;54687;50.800;6.772;2023-04-19T04:16:00;61021.63;;;-144.06;58.91
11017;BME280;54687;50.800;6.772;2023-04-19T04:18:26;61055.19;;;-144.06;58.82
11017;BME280;54687;50.800;6.772;2023-04-19T04:20:53;61002.78;;;-144.06;58.83
11017;BME280;54687;50.800;6.772;2023-04-19T04:23:20;61004.88;;;-144.06;59.03
11017;BME280;54687;50.800;6.772;2023-04-19T04:25:47;61013.25;;;-144.06;59.13
11017;BME280;54687;50.800;6.772;2023-04-19T04:28:13;61046.78;;;-144.06;59.28
11017;BME280;54687;50.800;6.772;2023-04-19T04:30:40;61013.25;;;-144.06;59.10
11017;BME280;54687;50.800;6.772;2023-04-19T04:33:08;61032.13;;;-144.06;59.27
11017;BME280;54687;50.800;6.772;2023-04-19T04:35:36;61021.63;;;-144.06;59.28
11017;BME280;54687;50.800;6.772;2023-04-19T04:38:02;60983.91;;;-144.06;59.35
11017;BME280;54687;50.800;6.772;2023-04-19T04:40:30;61046.78;;;-144.06;59.76
11017;BME280;54687;50.800;6.772;2023-04-19T04:42:56;61025.84;;;-144.06;60.21
11017;BME280;54687;50.800;6.772;2023-04-19T04:45:25;61061.47;;;-144.06;60.33
11017;BME280;54687;50.800;6.772;2023-04-19T04:47:53;61042.59;;;-144.06;60.39
11017;BME280;54687;50.800;6.772;2023-04-19T04:50:21;61023.75;;;-144.06;60.75
11017;BME280;54687;50.800;6.772;2023-04-19T04:52:48;61038.41;;;-144.06;60.56
11017;BME280;54687;50.800;6.772;2023-04-19T04:55:15;61009.06;;;-144.06;60.56
11017;BME280;54687;50.800;6.772;2023-04-19T04:57:41;61017.44;;;-144.06;60.72
11017;BME280;54687;50.800;6.772;2023-04-19T05:00:09;60988.09;;;-144.06;60.65
11017;BME280;54687;50.800;6.772;2023-04-19T05:02:36;60996.50;;;-144.06;60.73
11017;BME280;54687;50.800;6.772;2023-04-19T05:05:04;61025.84;;;-144.06;60.97
11017;BME280;54687;50.800;6.772;2023-04-19T05:07:32;61034.22;;;-144.06;60.68
11017;BME280;54687;50.800;6.772;2023-04-19T05:09:58;61027.94;;;-144.06;60.39
11017;BME280;54687;50.800;6.772;2023-04-19T05:12:25;61038.41;;;-144.06;60.33
11017;BME280;54687;50.800;6.772;2023-04-19T05:14:52;61055.19;;;-144.06;60.09
11017;BME280;54687;50.800;6.772;2023-04-19T05:17:18;61019.53;;;-144.06;59.60
11017;BME280;54687;50.800;6.772;2023-04-19T05:19:45;61042.59;;;-144.06;59.50
11017;BME280;54687;50.800;6.772;2023-04-19T05:22:11;61034.22;;;-144.06;59.25
11017;BME280;54687;50.800;6.772;2023-04-19T05:24:39;61023.75;;;-144.06;58.96
11017;BME280;54687;50.800;6.772;2023-04-19T05:27:06;61011.16;;;-144.06;58.64
11017;BME280;54687;50.800;6.772;2023-04-19T05:29:33;60992.28;;;-144.06;58.20
11017;BME280;54687;50.800;6.772;2023-04-19T05:32:00;61025.84;;;-144.06;57.88
11017;BME280;54687;50.800;6.772;2023-04-19T05:34:26;61048.88;;;-144.06;57.65
11017;BME280;54687;50.800;6.772;2023-04-19T05:36:53;61004.88;;;-144.06;57.54
11017;BME280;54687;50.800;6.772;2023-04-19T05:39:20;61038.41;;;-144.06;57.11
11017;BME280;54687;50.800;6.772;2023-04-19T05:41:48;61027.94;;;-144.06;56.83
11017;BME280;54687;50.800;6.772;2023-04-19T05:44:14;61009.06;;;-144.06;56.70
11017;BME280;54687;50.800;6.772;2023-04-19T05:46:41;60977.63;;;-144.06;56.60
11017;BME280;54687;50.800;6.772;2023-04-19T05:49:07;61021.63;;;-144.06;56.19
11017;BME280;54687;50.800;6.772;2023-04-19T05:51:34;61040.50;;;-144.06;55.89
11017;BME280;54687;50.800;6.772;2023-04-19T05:54:00;60962.94;;;-144.06;55.58
11017;BME280;54687;50.800;6.772;2023-04-19T05:56:27;61002.78;;;-144.06;55.38
11017;BME280;54687;50.800;6.772;2023-04-19T05:58:55;60983.91;;;-144.06;55.27
11017;BME280;54687;50.800;6.772;2023-04-19T06:01:22;60983.91;;;-144.06;55.14
11017;BME280;54687;50.800;6.772;2023-04-19T06:03:50;60983.91;;;-144.06;54.91
11017;BME280;54687;50.800;6.772;2023-04-19T06:06:19;61004.88;;;-144.06;54.98
11017;BME280;54687;50.800;6.772;2023-04-19T06:08:45;60992.28;;;-144.06;55.21
11017;BME280;54687;50.800;6.772;2023-04-19T06:11:12;61015.34;;;-144.06;55.33
11017;BME280;54687;50.800;6.772;2023-04-19T06:13:38;60983.91;;;-144.06;55.22
11017;BME280;54687;50.800;6.772;2023-04-19T06:16:07;61000.69;;;-144.06;55.30
11017;BME280;54687;50.800;6.772;2023-04-19T06:18:34;61009.06;;;-144.06;55.30
11017;BME280;54687;50.800;6.772;2023-04-19T06:21:01;60979.72;;;-144.06;55.07
11017;BME280;54687;50.800;6.772;2023-04-19T06:23:27;61021.63;;;-144.06;nan
11017;BME280;54687;50.800;6.772;2023-04-19T06:25:54;61002.78;;;-144.06;54.76
11017;BME280;54687;50.800;6.772;2023-04-19T06:28:21;60996.50;;;-144.06;54.33
11017;BME280;54687;50.800;6.772;2023-04-19T06:30:47;61011.16;;;-144.06;54.23
11017;BME280;54687;50.800;6.772;2023-04-19T06:33:15;60948.28;;;-144.06;54.05
11017;BME280;54687;50.800;6.772;2023-04-19T06:35:43;60986.00;;;-144.06;53.52
11017;BME280;54687;50.800;6.772;2023-04-19T06:38:10;60983.91;;;-144.06;53.47
11017;BME280;54687;50.800;6.772;2023-04-19T06:40:37;60971.34;;;-144.06;53.65
11017;BME280;54687;50.800;6.772;2023-04-19T06:43:03;60983.91;;;-144.06;53.32
11017;BME280;54687;50.800;6.772;2023-04-19T06:45:30;60988.09;;;-144.06;53.39
11017;BME280;54687;50.800;6.772;2023-04-19T06:47:57;61015.34;;;-144.06;53.14
11017;BME280;54687;50.800;6.772;2023-04-19T06:50:25;60971.34;;;-144.06;53.10
11017;BME280;54687;50.800;6.772;2023-04-19T06:52:52;60994.38;;;-144.06;52.79
11017;BME280;54687;50.800;6.772;2023-04-19T06:55:18;61000.69;;;-144.06;52.59
11017;BME280;54687;50.800;6.772;2023-04-19T06:57:45;60975.53;;;-144.06;52.68
11017;BME280;54687;50.800;6.772;2023-04-19T07:00:13;60979.72;;;-144.06;52.30
11017;BME280;54687;50.800;6.772;2023-04-19T07:02:40;61030.03;;;-144.06;51.89
11017;BME280;54687;50.800;6.772;2023-04-19T07:05:07;61011.16;;;-144.06;51.87
11017;BME280;54687;50.800;6.772;2023-04-19T07:07:35;60992.28;;;-144.06;51.76
11017;BME280;54687;50.800;6.772;2023-04-19T07:10:06;60979.72;;;-144.06;51.60
11017;BME280;54687;50.800;6.772;2023-04-19T07:12:33;60960.84;;;-144.06;51.50
11017;BME280;54687;50.800;6.772;2023-04-19T07:15:00;60939.88;;;-144.06;51.42
11017;BME280;54687;50.800;6.772;2023-04-19T07:17:27;60956.66;;;-144.06;50.67
11017;BME280;54687;50.800;6.772;2023-04-19T07:19:53;60946.19;;;-144.06;50.13
11017;BME280;54687;50.800;6.772;2023-04-19T07:22:20;60977.63;;;-144.06;49.56
11017;BME280;54687;50.800;6.772;2023-04-19T07:24:48;60946.19;;;-144.06;49.25
11017;BME280;54687;50.800;6.772;2023-04-19T07:27:16;60937.78;;;-144.06;49.08
11017;BME280;54687;50.800;6.772;2023-04-19T07:29:43;60965.03;;;-144.06;48.48
11017;BME280;54687;50.800;6.772;2023-04-19T07:32:10;60931.50;;;-144.06;47.94
11017;BME280;54687;50.800;6.772;2023-04-19T07:34:39;60904.25;;;-144.06;47.61
11017;BME280;54687;50.800;6.772;2023-04-19T07:37:06;60939.88;;;-144.06;46.75
11017;BME280;54687;50.800;6.772;2023-04-19T07:39:33;60929.41;;;-144.06;46.70
11017;BME280;54687;50.800;6.772;2023-04-19T07:42:01;60937.78;;;-144.06;47.24
11017;BME280;54687;50.800;6.772;2023-04-19T07:44:27;60956.66;;;-144.06;47.41
11017;BME280;54687;50.800;6.772;2023-04-19T07:46:54;60941.97;;;-144.06;47.75
11017;BME280;54687;50.800;6.772;2023-04-19T07:49:21;60971.34;;;-144.06;47.71
11017;BME280;54687;50.800;6.772;2023-04-19T07:51:47;60971.34;;;-144.06;47.46
11017;BME280;54687;50.800;6.772;2023-04-19T07:54:14;60906.34;;;-144.06;47.53
11017;BME280;54687;50.800;6.772;2023-04-19T07:56:44;60956.66;;;-144.06;47.78
11017;BME280;54687;50.800;6.772;2023-04-19T07:59:12;60908.44;;;-144.06;47.46
11017;BME280;54687;50.800;6.772;2023-04-19T08:01:38;60921.03;;;-144.06;47.30
11017;BME280;54687;50.800;6.772;2023-04-19T08:04:05;60906.34;;;-144.06;46.80
11017;BME280;54687;50.800;6.772;2023-04-19T08:06:32;60929.41;;;-144.06;46.88
11017;BME280;54687;50.800;6.772;2023-04-19T08:08:58;60937.78;;;-144.06;46.70
11017;BME280;54687;50.800;6.772;2023-04-19T08:11:25;60950.38;;;-144.06;46.88
11017;BME280;54687;50.800;6.772;2023-04-19T08:13:52;60933.59;;;-144.06;46.61
11017;BME280;54687;50.800;6.772;2023-04-19T08:16:21;60925.22;;;-144.06;46.42
11017;BME280;54687;50.800;6.772;2023-04-19T08:18:47;60946.19;;;-144.06;45.77
11017;BME280;54687;50.800;6.772;2023-04-19T08:21:16;60916.84;;;-144.06;45.40
11017;BME280;54687;50.800;6.772;2023-04-19T08:23:42;60939.88;;;-144.06;45.38
11017;BME280;54687;50.800;6.772;2023-04-19T08:26:09;60952.47;;;-144.06;44.64
11017;BME280;54687;50.800;6.772;2023-04-19T08:28:35;60925.22;;;-144.06;44.89
11017;BME280;54687;50.800;6.772;2023-04-19T08:31:04;60921.03;;;-144.06;44.76
11017;BME280;54687;50.800;6.772;2023-04-19T08:33:33;60916.84;;;-144.06;44.57
11017;BME280;54687;50.800;6.772;2023-04-19T08:35:59;60935.69;;;-144.06;44.53
11017;BME280;54687;50.800;6.772;2023-04-19T08:38:26;60910.53;;;-144.06;44.29
11017;BME280;54687;50.800;6.772;2023-04-19T08:40:53;60908.44;;;-144.06;44.34
11017;BME280;54687;50.800;6.772;2023-04-19T08:43:20;60897.97;;;-144.06;44.62
11017;BME280;54687;50.800;6.772;2023-04-19T08:45:48;60933.59;;;-144.06;44.19
11017;BME280;54687;50.800;6.772;2023-04-19T08:48:16;60921.03;;;-144.06;44.14
11017;BME280;54687;50.800;6.772;2023-04-19T08:50:44;60904.25;;;-144.06;44.00
11017;BME280;54687;50.800;6.772;2023-04-19T08:53:12;60904.25;;;-144.06;43.75
11017;BME280;54687;50.800;6.772;2023-04-19T08:55:40;60921.03;;;-144.06;43.96
11017;BME280;54687;50.800;6.772;2023-04-19T08:58:07;60937.78;;;-144.06;43.71
11017;BME280;54687;50.800;6.772;2023-04-19T09:00:37;60914.72;;;-144.06;43.41
11017;BME280;54687;50.800;6.772;2023-04-19T09:03:05;60933.59;;;-144.06;42.90
11017;BME280;54687;50.800;6.772;2023-04-19T09:05:32;60904.25;;;-144.06;42.60
11017;BME280;54687;50.800;6.772;2023-04-19T09:08:20;60874.91;;;-144.06;42.13
11017;BME280;54687;50.800;6.772;2023-04-19T09:10:51;60902.16;;;-144.06;42.47
11017;BME280;54687;50.800;6.772;2023-04-19T09:13:19;60908.44;;;-144.06;41.78
11017;BME280;54687;50.800;6.772;2023-04-19T09:15:45;60921.03;;;-144.06;41.49
11017;BME280;54687;50.800;6.772;2023-04-19T09:18:12;60879.09;;;-144.06;40.64
11017;BME280;54687;50.800;6.772;2023-04-19T09:20:40;60889.59;;;-144.06;40.81
11017;BME280;54687;50.800;6.772;2023-04-19T09:23:10;60923.13;;;-144.06;40.62
11017;BME280;54687;50.800;6.772;2023-04-19T09:25:37;60893.78;;;-144.06;40.39
11017;BME280;54687;50.800;6.772;2023-04-19T09:28:10;60921.03;;;-144.06;40.43
11017;BME280;54687;50.800;6.772;2023-04-19T09:30:38;60906.34;;;-144.06;40.61
11017;BME280;54687;50.800;6.772;2023-04-19T09:33:05;60883.28;;;-144.06;40.50
11017;BME280;54687;50.800;6.772;2023-04-19T09:35:39;60906.34;;;-144.06;40.13
11017;BME280;54687;50.800;6.772;2023-04-19T09:38:08;60887.47;;;-144.06;39.77
11017;BME280;54687;50.800;6.772;2023-04-19T09:40:36;60906.34;;;-144.06;40.20
11017;BME280;54687;50.800;6.772;2023-04-19T09:43:03;60935.69;;;-144.06;40.28
11017;BME280;54687;50.800;6.772;2023-04-19T09:45:38;60912.63;;;-144.06;40.35
11017;BME280;54687;50.800;6.772;2023-04-19T09:48:06;60893.78;;;-144.06;39.59
11017;BME280;54687;50.800;6.772;2023-04-19T09:50:33;60941.97;;;-144.06;39.52
11017;BME280;54687;50.800;6.772;2023-04-19T09:53:01;60879.09;;;-144.06;39.41
11017;BME280;54687;50.800;6.772;2023-04-19T09:55:29;60868.63;;;-144.06;38.94
11017;BME280;54687;50.800;6.772;2023-04-19T09:57:56;60853.94;;;-144.06;38.99
11017;BME280;54687;50.800;6.772;2023-04-19T10:00:22;60877.00;;;-144.06;38.26
11017;BME280;54687;50.800;6.772;2023-04-19T10:02:50;60912.63;;;-144.06;38.21
11017;BME280;54687;50.800;6.772;2023-04-19T10:05:20;60895.88;;;-144.06;37.42
11017;BME280;54687;50.800;6.772;2023-04-19T10:07:47;60864.44;;;-144.06;37.63
11017;BME280;54687;50.800;6.772;2023-04-19T10:10:16;60872.81;;;-144.06;36.79
11017;BME280;54687;50.800;6.772;2023-04-19T10:12:46;60874.91;;;-144.06;36.08
11017;BME280;54687;50.800;6.772;2023-04-19T10:15:13;60862.34;;;-144.06;36.42
11017;BME280;54687;50.800;6.772;2023-04-19T10:17:40;60887.47;;;-144.06;37.16
11017;BME280;54687;50.800;6.772;2023-04-19T10:20:09;60879.09;;;-144.06;35.27
11017;BME280;54687;50.800;6.772;2023-04-19T10:22:37;60908.44;;;-144.06;35.44
11017;BME280;54687;50.800;6.772;2023-04-19T10:25:08;60870.72;;;-144.06;34.93
11017;BME280;54687;50.800;6.772;2023-04-19T10:27:37;60864.44;;;-144.06;34.50
11017;BME280;54687;50.800;6.772;2023-04-19T10:30:15;60837.19;;;-144.06;34.29
11017;BME280;54687;50.800;6.772;2023-04-19T10:32:44;60837.19;;;-144.06;35.27
11017;BME280;54687;50.800;6.772;2023-04-19T10:35:17;60883.28;;;-144.06;35.63
11017;BME280;54687;50.800;6.772;2023-04-19T10:38:08;60891.69;;;-144.06;35.15
11017;BME280;54687;50.800;6.772;2023-04-19T10:40:56;60845.56;;;-144.06;35.46
11017;BME280;54687;50.800;6.772;2023-04-19T10:43:25;60862.34;;;-144.06;35.99
11017;BME280;54687;50.800;6.772;2023-04-19T10:45:54;60879.09;;;-144.06;36.18
11017;BME280;54687;50.800;6.772;2023-04-19T10:48:35;60874.91;;;-144.06;35.23
11017;BME280;54687;50.800;6.772;2023-04-19T10:51:05;60860.25;;;-144.06;35.47
11017;BME280;54687;50.800;6.772;2023-04-19T10:53:45;60866.53;;;-144.06;34.94
11017;BME280;54687;50.800;6.772;2023-04-19T10:56:13;60858.13;;;-144.06;35.59
11017;BME280;54687;50.800;6.772;2023-04-19T10:59:11;60866.53;;;-144.06;35.48
11017;BME280;54687;50.800;6.772;2023-04-19T11:01:42;60841.38;;;-144.06;35.46
11017;BME280;54687;50.800;6.772;2023-04-19T11:04:10;60853.94;;;-144.06;35.73
11017;BME280;54687;50.800;6.772;2023-04-19T11:06:41;60874.91;;;-144.06;35.08
11017;BME280;54687;50.800;6.772;2023-04-19T11:09:21;60874.91;;;-144.06;35.05
11017;BME280;54687;50.800;6.772;2023-04-19T11:11:51;60939.88;;;-144.06;34.90
11017;BME280;54687;50.800;6.772;2023-04-19T11:14:19;60870.72;;;-144.06;35.00
11017;BME280;54687;50.800;6.772;2023-04-19T11:16:47;60862.34;;;-144.06;34.46
11017;BME280;54687;50.800;6.772;2023-04-19T11:19:14;60877.00;;;-144.06;34.85
11017;BME280;54687;50.800;6.772;2023-04-19T11:21:41;60870.72;;;-144.06;34.26
11017;BME280;54687;50.800;6.772;2023-04-19T11:24:08;60862.34;;;-144.06;34.07
11017;BME280;54687;50.800;6.772;2023-04-19T11:26:35;60833.00;;;-144.06;34.00
11017;BME280;54687;50.800;6.772;2023-04-19T11:29:01;60849.75;;;-144.06;33.86
11017;BME280;54687;50.800;6.772;2023-04-19T11:31:31;60856.03;;;-144.06;33.50
11017;BME280;54687;50.800;6.772;2023-04-19T11:33:59;60828.78;;;-144.06;33.82
11017;BME280;54687;50.800;6.772;2023-04-19T11:36:25;60858.13;;;-144.06;33.65
11017;BME280;54687;50.800;6.772;2023-04-19T11:38:52;60853.94;;;-144.06;34.01
11017;BME280;54687;50.800;6.772;2023-04-19T11:41:19;60839.28;;;-144.06;33.78
11017;BME280;54687;50.800;6.772;2023-04-19T11:43:46;60849.75;;;-144.06;33.65
11017;BME280;54687;50.800;6.772;2023-04-19T11:46:13;60807.84;;;-144.06;33.36
11017;BME280;54687;50.800;6.772;2023-04-19T11:48:49;60816.22;;;-144.06;33.21
11017;BME280;54687;50.800;6.772;2023-04-19T11:51:18;60866.53;;;-144.06;33.06
11017;BME280;54687;50.800;6.772;2023-04-19T11:53:45;60824.59;;;-144.06;32.60
11017;BME280;54687;50.800;6.772;2023-04-19T11:56:12;60837.19;;;-144.06;32.85
11017;BME280;54687;50.800;6.772;2023-04-19T11:58:40;60841.38;;;-144.06;32.38
11017;BME280;54687;50.800;6.772;2023-04-19T12:01:10;60853.94;;;-144.06;32.50
11017;BME280;54687;50.800;6.772;2023-04-19T12:03:40;60839.28;;;-144.06;33.12
11017;BME280;54687;50.800;6.772;2023-04-19T12:06:10;60824.59;;;-144.06;32.61
11017;BME280;54687;50.800;6.772;2023-04-19T12:08:42;60822.50;;;-144.06;31.84
11017;BME280;54687;50.800;6.772;2023-04-19T12:11:09;60812.03;;;-144.06;32.01
11017;BME280;54687;50.800;6.772;2023-04-19T12:13:36;60791.06;;;-144.06;32.10
11017;BME280;54687;50.800;6.772;2023-04-19T12:16:05;60820.41;;;-144.06;32.08
11017;BME280;54687;50.800;6.772;2023-04-19T12:18:43;60845.56;;;-144.06;31.85
11017;BME280;54687;50.800;6.772;2023-04-19T12:21:10;60862.34;;;-144.06;31.87
11017;BME280;54687;50.800;6.772;2023-04-19T12:23:52;60826.69;;;-144.06;31.67
11017;BME280;54687;50.800;6.772;2023-04-19T12:26:19;60853.94;;;-144.06;31.36
11017;BME280;54687;50.800;6.772;2023-04-19T12:28:46;60818.31;;;-144.06;31.48
11017;BME280;54687;50.800;6.772;2023-04-19T12:31:12;60830.88;;;-144.06;31.72
11017;BME280;54687;50.800;6.772;2023-04-19T12:33:39;60816.22;;;-144.06;31.28
11017;BME280;54687;50.800;6.772;2023-04-19T12:36:06;60816.22;;;-144.06;30.79
11017;BME280;54687;50.800;6.772;2023-04-19T12:38:33;60795.25;;;-144.06;30.71
11017;BME280;54687;50.800;6.772;2023-04-19T12:41:01;60824.59;;;-144.06;30.42
11017;BME280;54687;50.800;6.772;2023-04-19T12:43:27;60803.66;;;-144.06;30.42